Detall de PIREP

Printer-friendly versionPDF version

[2013/11/01 10:57:00]
Flight IATA:CT0001
Pilot Number:042
Company ICAO:CAT
Aircraft Type:B738/F
PAX:95
Departing Airport: LEBL
Destination Airport: LEAL
Alternate Airport:LEPA
Online: VATSIM
Route:LOTOS UM985 VLC
Flight Level:F290
No Slew and time accel
No pause
Crash detect
Detect pilot in Cockpit between each 30 and 45 minutes
10:57 Zero fuel Weight: 121805 Lbs, Fuel Weight: 45504 Lbs
10:57 VATSIM:LEBL 011030Z 31007KT 250V350 9999 FEW025 18/03 Q1022 NOSIG
10:57 VATSIM:LEAL 011030Z 22006KT 190V260 CAVOK 22/03 Q1024 NOSIG
10:58 VOICE CATALONIAN
11:06 Parking Brakes off
11:18 Take-off
11:18 Take off Weight: 166258 Lbs
11:18 Wind: 308º @ 004 Knots Heading: 245º
11:18 POS N41º 17´ 03´´ E002º 04´ 47´´
11:18 Gear Up: 170 Knots
11:18 Flaps:3 at 170 Knots
11:19 Flaps:2 at 179 Knots
11:19 Flaps:1 at 170 Knots
11:19 Flaps:0 at 184 Knots
11:33 Wind:243º@001 Knots Heading: 227º Ground Speed: 445 Knots Altitude 20541 ft
11:48 Wind:230º@004 Knots Heading: 195º Ground Speed: 322 Knots Altitude 12358 ft
11:55 Flaps:1 at 241 Knots
11:55 Flaps:2 at 233 Knots
11:56 Flaps:3 at 220 Knots
11:58 Gear Down: 182 Knots
11:58 Flaps:4 at 178 Knots
11:58 Flaps:5 at 175 Knots
11:58 Flaps:6 at 170 Knots
11:58 Flaps:7 at 158 Knots
11:59 Flaps:8 at 151 Knots
12:01 TouchDown:Rate -89 ft/min Speed: 144 Knots
12:01 VATSIM:LEAL 011130Z 23007KT 200V270 CAVOK 23/02 Q1023 NOSIG
12:01 Land
12:01 Wind:228º@006 Knots
12:01 Heading: 099º
12:01 Flight Duration: 00:43
12:01 Landing Weight: 161256 Lbs
12:01 POS N38º 16´ 54´´ W000º 33´ 24´´
12:06 Parking brakes on
12:06 Block to Block Duration: 01:00
12:06 Final Fuel: 39001 Lbls
12:06 Spent Fuel: 6503 Lbls
12:06 Flight Length: 244 NM
12:06 TOD Land Length: 244 NM

Exportar CSV

Powered by Drupal - Modified by Danger4k